Time;durP1;ratioP1;P1;durP2;ratioP2;P2;SDS_P1;SDS_P2;PMS_P1;PMS_P2;Temp;Humidity;BMP_temperature;BMP_pressure;BME280_temperature;BME280_humidity;BME280_pressure;Samples;Min_cycle;Max_cycle;Signal;HPM_P1;HPM_P2
2021/06/28 00:00:57;;;;;;;2.00;1.90;;;25.90;41.30;;;;;;4931553;29;20213;-54
2021/06/28 00:03:23;;;;;;;1.55;1.45;;;25.90;41.30;;;;;;4933108;29;20244;-56
2021/06/28 00:05:50;;;;;;;1.80;1.70;;;25.90;41.30;;;;;;4932933;29;20248;-54
2021/06/28 00:08:16;;;;;;;1.60;1.50;;;25.90;41.30;;;;;;4931757;29;20197;-55
2021/06/28 00:10:43;;;;;;;1.90;1.80;;;25.90;41.30;;;;;;4931568;29;20230;-56
2021/06/28 00:13:09;;;;;;;2.65;1.52;;;25.90;41.30;;;;;;4932347;29;20217;-55
2021/06/28 00:15:37;;;;;;;2.45;1.55;;;25.90;41.30;;;;;;4932424;29;20680;-54
2021/06/28 00:18:04;;;;;;;1.60;1.50;;;25.90;41.30;;;;;;4931575;29;20592;-56
2021/06/28 00:20:31;;;;;;;1.50;1.40;;;25.90;41.30;;;;;;4930385;29;20585;-51
2021/06/28 00:22:57;;;;;;;1.70;1.60;;;25.90;41.30;;;;;;4932094;29;20593;-56
2021/06/28 00:25:23;;;;;;;1.70;1.60;;;25.90;41.30;;;;;;4932354;29;20614;-53
2021/06/28 00:27:50;;;;;;;1.60;1.50;;;25.90;41.30;;;;;;4931483;29;20857;-53
2021/06/28 00:30:16;;;;;;;1.40;1.30;;;25.90;41.30;;;;;;4931846;29;20289;-50
2021/06/28 00:32:43;;;;;;;1.58;1.48;;;25.80;41.30;;;;;;4932181;29;20422;-54
2021/06/28 00:35:09;;;;;;;1.70;1.60;;;25.90;41.30;;;;;;4930778;29;20244;-55
2021/06/28 00:37:36;;;;;;;1.73;1.63;;;25.90;41.30;;;;;;4931283;29;20240;-55
2021/06/28 00:40:02;;;;;;;2.10;1.75;;;25.90;41.30;;;;;;4930576;29;20704;-55
2021/06/28 00:42:29;;;;;;;1.80;1.70;;;25.90;41.30;;;;;;4932214;29;20337;-55
2021/06/28 00:44:55;;;;;;;1.85;1.65;;;25.90;41.30;;;;;;4930774;29;20288;-56
2021/06/28 00:47:22;;;;;;;1.60;1.50;;;25.90;41.30;;;;;;4932023;29;20274;-56
2021/06/28 00:49:48;;;;;;;1.40;1.30;;;25.90;41.30;;;;;;4930590;29;20198;-49
2021/06/28 00:52:14;;;;;;;1.60;1.50;;;25.80;41.30;;;;;;4931772;29;20754;-52
2021/06/28 00:54:41;;;;;;;1.63;1.52;;;25.90;41.30;;;;;;4930786;29;20339;-55
2021/06/28 00:57:07;;;;;;;2.67;1.60;;;25.80;41.20;;;;;;4933150;29;20232;-55
2021/06/28 00:59:34;;;;;;;1.50;1.40;;;25.90;41.30;;;;;;4934400;29;20304;-55
2021/06/28 01:02:02;;;;;;;2.22;1.70;;;25.90;41.30;;;;;;4934699;29;20228;-56
2021/06/28 01:04:28;;;;;;;1.75;1.65;;;25.90;41.30;;;;;;4935874;29;20261;-54
2021/06/28 01:06:55;;;;;;;1.30;1.20;;;25.90;41.30;;;;;;4934905;29;20206;-57
2021/06/28 01:09:21;;;;;;;1.65;1.40;;;25.80;41.30;;;;;;4933559;29;20214;-56
2021/06/28 01:11:48;;;;;;;1.85;1.75;;;25.90;41.30;;;;;;4934670;29;20689;-56
2021/06/28 01:14:15;;;;;;;1.52;1.30;;;25.90;42.00;;;;;;4934817;29;20202;-54
2021/06/28 01:16:41;;;;;;;1.80;1.70;;;25.90;41.30;;;;;;4935271;29;20206;-54
2021/06/28 01:19:08;;;;;;;1.65;1.50;;;25.80;41.30;;;;;;4933002;29;20293;-53
2021/06/28 01:21:34;;;;;;;1.70;1.60;;;25.90;41.30;;;;;;4933391;29;20213;-56
2021/06/28 01:24:01;;;;;;;1.60;1.50;;;25.90;41.30;;;;;;4934145;29;20244;-56
2021/06/28 01:26:27;;;;;;;1.67;1.50;;;25.90;41.30;;;;;;4930547;29;20554;-55
2021/06/28 01:28:54;;;;;;;1.77;1.67;;;25.90;41.50;;;;;;4933291;29;20206;-54
2021/06/28 01:31:20;;;;;;;1.75;1.65;;;25.90;41.30;;;;;;4939018;29;20205;-56
2021/06/28 01:33:46;;;;;;;1.40;1.30;;;25.90;41.30;;;;;;4936188;29;20320;-56
2021/06/28 01:36:13;;;;;;;1.30;1.20;;;25.80;41.20;;;;;;4929135;29;20229;-55
2021/06/28 01:38:39;;;;;;;1.90;1.50;;;25.80;41.30;;;;;;4933913;29;20209;-56
2021/06/28 01:41:06;;;;;;;1.60;1.50;;;25.80;41.30;;;;;;4933089;29;20210;-56
2021/06/28 01:43:32;;;;;;;1.52;1.42;;;25.90;41.30;;;;;;4935107;29;20230;-56
2021/06/28 01:45:59;;;;;;;1.80;1.70;;;25.80;41.30;;;;;;4933903;29;20213;-55
2021/06/28 01:48:25;;;;;;;1.73;1.63;;;25.80;41.30;;;;;;4935092;29;20659;-56
2021/06/28 01:50:52;;;;;;;1.50;1.40;;;25.90;41.30;;;;;;4933578;29;20233;-55
2021/06/28 01:53:18;;;;;;;1.58;1.48;;;25.80;41.30;;;;;;4933773;29;20313;-55
2021/06/28 01:55:44;;;;;;;1.65;1.55;;;25.90;41.30;;;;;;4934736;29;20241;-55
2021/06/28 01:58:11;;;;;;;1.60;1.40;;;25.80;41.30;;;;;;4933784;29;20345;-55
2021/06/28 02:00:37;;;;;;;1.67;1.58;;;25.80;41.30;;;;;;4934072;29;20292;-55
2021/06/28 02:03:04;;;;;;;1.58;1.48;;;25.80;41.30;;;;;;4933192;29;20582;-53
2021/06/28 02:05:30;;;;;;;1.55;1.45;;;25.80;41.30;;;;;;4934711;29;20574;-56
2021/06/28 02:07:57;;;;;;;1.50;1.40;;;25.80;41.30;;;;;;4932835;29;20302;-55
2021/06/28 02:10:23;;;;;;;1.90;1.80;;;25.80;41.30;;;;;;4931655;29;20210;-53
2021/06/28 02:12:50;;;;;;;1.60;1.50;;;25.80;41.30;;;;;;4931249;29;20233;-56
2021/06/28 02:15:16;;;;;;;1.50;1.40;;;25.80;41.30;;;;;;4934052;29;20320;-56
2021/06/28 02:17:42;;;;;;;2.13;1.60;;;25.80;41.30;;;;;;4933648;29;20308;-56
2021/06/28 02:20:09;;;;;;;1.67;1.58;;;25.80;41.30;;;;;;4932857;29;20232;-55
2021/06/28 02:22:35;;;;;;;1.50;1.40;;;25.80;41.30;;;;;;4932711;29;20321;-56
2021/06/28 02:25:02;;;;;;;2.05;1.65;;;25.80;41.30;;;;;;4934245;29;20205;-56
2021/06/28 02:27:28;;;;;;;1.58;1.48;;;25.80;41.30;;;;;;4933372;29;20206;-53
2021/06/28 02:29:55;;;;;;;1.65;1.55;;;25.80;41.30;;;;;;4933796;29;20333;-54
2021/06/28 02:32:22;;;;;;;1.55;1.45;;;25.80;41.30;;;;;;4927381;29;20320;-55
2021/06/28 02:34:48;;;;;;;1.73;1.63;;;25.80;41.30;;;;;;4932806;29;20230;-56
2021/06/28 02:37:14;;;;;;;1.55;1.45;;;25.80;41.30;;;;;;4932165;29;20292;-55
2021/06/28 02:39:41;;;;;;;1.50;1.40;;;25.80;41.30;;;;;;4931835;29;20212;-53
2021/06/28 02:42:07;;;;;;;1.95;1.67;;;25.80;41.30;;;;;;4933849;29;20224;-54
2021/06/28 02:44:34;;;;;;;1.30;1.20;;;25.80;41.30;;;;;;4933402;29;20206;-56
2021/06/28 02:47:00;;;;;;;1.65;1.55;;;25.80;41.30;;;;;;4933202;29;20202;-54
2021/06/28 02:49:27;;;;;;;1.55;1.45;;;25.80;41.30;;;;;;4933208;29;20210;-54
2021/06/28 02:51:53;;;;;;;1.63;1.52;;;25.80;41.30;;;;;;4932289;29;20661;-56
2021/06/28 02:54:20;;;;;;;1.33;1.23;;;25.80;41.30;;;;;;4933326;29;20213;-55
2021/06/28 02:56:46;;;;;;;1.60;1.50;;;25.80;41.30;;;;;;4932660;29;20268;-56
2021/06/28 02:59:13;;;;;;;1.50;1.40;;;25.80;41.30;;;;;;4933471;29;20300;-56
2021/06/28 03:01:39;;;;;;;2.20;1.40;;;25.80;41.30;;;;;;4932816;29;20312;-57
2021/06/28 03:04:05;;;;;;;1.60;1.50;;;25.80;41.30;;;;;;4932869;29;20209;-55
2021/06/28 03:06:32;;;;;;;1.55;1.45;;;25.80;41.30;;;;;;4932716;29;20210;-56
2021/06/28 03:08:58;;;;;;;1.42;1.33;;;25.80;41.30;;;;;;4932682;29;20716;-56
2021/06/28 03:11:25;;;;;;;1.60;1.50;;;25.80;41.30;;;;;;4933305;29;20660;-56
2021/06/28 03:13:51;;;;;;;1.42;1.33;;;25.80;41.30;;;;;;4932310;29;20233;-56
2021/06/28 03:16:18;;;;;;;1.50;1.40;;;25.80;41.30;;;;;;4932890;29;20229;-56
2021/06/28 03:18:44;;;;;;;1.60;1.50;;;25.80;41.30;;;;;;4932828;29;20212;-55
2021/06/28 03:21:11;;;;;;;1.50;1.40;;;25.80;41.30;;;;;;4932317;29;20884;-55
2021/06/28 03:23:38;;;;;;;1.40;1.30;;;25.80;41.40;;;;;;4932213;29;20289;-56
2021/06/28 03:26:04;;;;;;;1.60;1.50;;;25.80;41.40;;;;;;4931131;29;20229;-54
2021/06/28 03:28:31;;;;;;;1.50;1.40;;;25.80;41.30;;;;;;4932570;29;20225;-54
2021/06/28 03:30:57;;;;;;;2.35;1.88;;;25.80;41.40;;;;;;4932209;29;20729;-56
2021/06/28 03:33:24;;;;;;;1.60;1.50;;;25.80;41.40;;;;;;4932790;29;20292;-56
2021/06/28 03:35:50;;;;;;;1.63;1.30;;;25.80;41.40;;;;;;4931806;29;20325;-57
2021/06/28 03:38:17;;;;;;;1.50;1.40;;;25.80;41.40;;;;;;4931803;29;20214;-54
2021/06/28 03:40:43;;;;;;;1.40;1.30;;;25.80;41.40;;;;;;4932327;29;20205;-55
2021/06/28 03:43:10;;;;;;;1.45;1.30;;;25.80;41.40;;;;;;4932794;29;20771;-53
2021/06/28 03:45:36;;;;;;;1.60;1.50;;;25.80;41.40;;;;;;4931529;29;20648;-55
2021/06/28 03:48:02;;;;;;;1.25;1.20;;;25.80;41.40;;;;;;4932616;29;20205;-53
2021/06/28 03:50:29;;;;;;;1.52;1.42;;;25.80;41.40;;;;;;4931609;29;20241;-55
2021/06/28 03:52:55;;;;;;;1.52;1.42;;;25.80;41.40;;;;;;4932361;29;20222;-54
2021/06/28 03:55:22;;;;;;;1.35;1.25;;;25.80;41.40;;;;;;4932288;29;20320;-54
2021/06/28 03:57:48;;;;;;;1.40;1.30;;;25.80;41.40;;;;;;4931912;29;20301;-55
2021/06/28 04:00:15;;;;;;;1.60;1.50;;;25.80;41.40;;;;;;4931363;29;20248;-56
2021/06/28 04:02:43;;;;;;;1.27;1.17;;;25.80;41.60;;;;;;4932816;29;20230;-56
2021/06/28 04:05:09;;;;;;;1.60;1.50;;;25.80;41.60;;;;;;4931138;29;20540;-52
2021/06/28 04:07:36;;;;;;;1.60;1.50;;;25.80;41.60;;;;;;4931763;29;20234;-55
2021/06/28 04:10:02;;;;;;;1.50;1.40;;;25.80;41.60;;;;;;4930910;29;20206;-57
2021/06/28 04:12:29;;;;;;;1.67;1.58;;;25.80;41.70;;;;;;4929509;29;20267;-56
2021/06/28 04:14:55;;;;;;;1.50;1.40;;;25.80;41.60;;;;;;4978935;23;20338;-56
2021/06/28 04:17:22;;;;;;;1.50;1.30;;;25.80;41.70;;;;;;4990503;28;20243;-56
2021/06/28 04:19:48;;;;;;;1.85;1.67;;;25.80;41.80;;;;;;4990306;28;20642;-53
2021/06/28 04:22:15;;;;;;;1.45;1.35;;;25.80;41.60;;;;;;4991356;28;20315;-57
2021/06/28 04:24:41;;;;;;;1.42;1.33;;;25.80;41.60;;;;;;4988218;28;20616;-56
2021/06/28 04:27:07;;;;;;;1.50;1.40;;;25.80;41.60;;;;;;4989636;28;20239;-58
2021/06/28 04:29:34;;;;;;;1.80;1.65;;;25.80;41.60;;;;;;4990605;28;20211;-51
2021/06/28 04:32:01;;;;;;;1.73;1.30;;;25.80;41.60;;;;;;4991633;28;20231;-50
2021/06/28 04:34:27;;;;;;;1.42;1.33;;;25.80;41.60;;;;;;4993951;28;20299;-55
2021/06/28 04:36:53;;;;;;;1.52;1.42;;;25.80;41.60;;;;;;4991179;28;20465;-54
2021/06/28 04:39:20;;;;;;;2.08;1.52;;;25.80;41.60;;;;;;4993282;28;20222;-56
2021/06/28 04:41:46;;;;;;;1.50;1.40;;;25.80;41.60;;;;;;4994368;28;20299;-53
2021/06/28 04:44:13;;;;;;;1.58;1.48;;;25.80;41.60;;;;;;4993354;28;20638;-56
2021/06/28 04:46:39;;;;;;;1.50;1.40;;;25.80;41.60;;;;;;4994459;28;20204;-55
2021/06/28 04:49:06;;;;;;;1.42;1.33;;;25.80;41.60;;;;;;4993647;28;20291;-58
2021/06/28 04:51:33;;;;;;;1.58;1.48;;;25.80;41.60;;;;;;4995012;28;20234;-56
2021/06/28 04:53:59;;;;;;;1.58;1.38;;;25.80;41.60;;;;;;4991347;28;20287;-59
2021/06/28 04:56:26;;;;;;;1.45;1.35;;;25.80;41.60;;;;;;4992769;28;20633;-50
2021/06/28 04:58:52;;;;;;;1.50;1.40;;;25.80;41.60;;;;;;4993705;28;20241;-52
2021/06/28 05:01:19;;;;;;;1.67;1.58;;;25.80;41.60;;;;;;4993997;28;20224;-56
2021/06/28 05:03:45;;;;;;;1.50;1.40;;;25.80;41.60;;;;;;4994414;28;20210;-55
2021/06/28 05:06:11;;;;;;;1.65;1.55;;;25.80;41.60;;;;;;4993118;28;20743;-55
2021/06/28 05:08:38;;;;;;;1.23;1.20;;;25.80;41.60;;;;;;4993704;28;20547;-49
2021/06/28 05:11:04;;;;;;;1.40;1.30;;;25.80;41.60;;;;;;4992767;28;20586;-49
2021/06/28 05:13:31;;;;;;;1.40;1.30;;;25.80;41.60;;;;;;4994429;28;20243;-51
2021/06/28 05:15:57;;;;;;;1.30;1.20;;;25.80;41.60;;;;;;4993173;28;20242;-51
2021/06/28 05:18:24;;;;;;;1.23;1.23;;;25.80;41.60;;;;;;4989238;28;20298;-50
2021/06/28 05:20:50;;;;;;;1.40;1.20;;;25.80;41.60;;;;;;4993298;28;20692;-52
2021/06/28 05:23:17;;;;;;;1.45;1.35;;;25.80;41.60;;;;;;4990760;28;20203;-53
2021/06/28 05:25:44;;;;;;;1.30;1.20;;;25.80;41.60;;;;;;4987074;28;20294;-50
2021/06/28 05:28:11;;;;;;;1.30;1.20;;;25.80;41.50;;;;;;4992024;28;20246;-58
2021/06/28 05:30:37;;;;;;;1.60;1.50;;;25.80;41.70;;;;;;4991352;28;20714;-52
2021/06/28 05:33:04;;;;;;;1.83;1.33;;;25.80;41.70;;;;;;4983755;28;20289;-49
2021/06/28 05:35:30;;;;;;;1.63;1.52;;;25.80;41.70;;;;;;4983476;28;20212;-57
2021/06/28 05:37:57;;;;;;;1.60;1.50;;;25.80;41.60;;;;;;4991944;28;20294;-50
2021/06/28 05:40:23;;;;;;;1.30;1.20;;;25.80;41.70;;;;;;4990631;28;20311;-51
2021/06/28 05:42:50;;;;;;;1.30;1.20;;;25.80;41.60;;;;;;4992659;28;20204;-53
2021/06/28 05:45:16;;;;;;;1.52;1.38;;;25.80;41.60;;;;;;4992635;28;20303;-53
2021/06/28 05:47:43;;;;;;;1.30;1.20;;;25.80;41.60;;;;;;4987054;28;20591;-53
2021/06/28 05:50:11;;;;;;;1.48;1.38;;;25.80;41.60;;;;;;4985281;28;20202;-53
2021/06/28 05:52:37;;;;;;;1.50;1.40;;;25.80;41.60;;;;;;4992019;28;20681;-53
2021/06/28 05:55:04;;;;;;;1.42;1.33;;;25.80;41.60;;;;;;4981992;28;20235;-54
2021/06/28 05:57:30;;;;;;;1.30;1.20;;;25.80;41.70;;;;;;4990607;28;20238;-56
2021/06/28 05:59:57;;;;;;;1.48;1.38;;;25.80;41.60;;;;;;4987288;28;20291;-56
2021/06/28 06:02:23;;;;;;;1.20;1.10;;;25.90;41.70;;;;;;4992650;28;20614;-55
2021/06/28 06:04:50;;;;;;;1.20;1.20;;;25.80;41.70;;;;;;4992980;28;20290;-49
2021/06/28 06:07:16;;;;;;;1.30;1.20;;;25.80;41.70;;;;;;4991418;28;20200;-54
2021/06/28 06:09:45;;;;;;;1.50;1.40;;;25.80;41.70;;;;;;4990153;28;20227;-52
2021/06/28 06:12:11;;;;;;;1.45;1.35;;;25.80;41.70;;;;;;4992733;28;20207;-52
2021/06/28 06:14:38;;;;;;;1.60;1.50;;;25.90;41.70;;;;;;4989132;28;20215;-58
2021/06/28 06:17:04;;;;;;;1.70;1.60;;;25.80;41.70;;;;;;4988568;28;20319;-55
2021/06/28 06:19:30;;;;;;;1.40;1.30;;;25.80;41.70;;;;;;4991943;28;21040;-54
2021/06/28 06:21:57;;;;;;;1.60;1.50;;;25.90;41.80;;;;;;4993405;28;20660;-52
2021/06/28 06:24:27;;;;;;;1.42;1.33;;;25.90;41.70;;;;;;4990053;28;20291;-52
2021/06/28 06:26:54;;;;;;;1.20;1.10;;;25.90;41.80;;;;;;4981846;28;20275;-54
2021/06/28 06:29:20;;;;;;;1.40;1.30;;;25.90;41.70;;;;;;4988936;28;20298;-57
2021/06/28 06:31:47;;;;;;;1.73;1.38;;;25.90;41.90;;;;;;4984215;28;20248;-53
2021/06/28 06:34:13;;;;;;;1.25;1.15;;;25.90;41.90;;;;;;4983970;28;20204;-51
2021/06/28 06:36:40;;;;;;;1.10;1.10;;;25.90;41.80;;;;;;4992138;28;20229;-53
2021/06/28 06:39:06;;;;;;;1.30;1.20;;;25.80;41.80;;;;;;4991338;28;20296;-57
2021/06/28 06:41:32;;;;;;;1.38;1.27;;;25.90;41.90;;;;;;4990182;28;20302;-55
2021/06/28 06:43:59;;;;;;;1.42;1.33;;;25.80;41.80;;;;;;4986886;28;20370;-51
2021/06/28 06:46:25;;;;;;;1.40;1.30;;;25.90;41.80;;;;;;4990260;28;20210;-54
2021/06/28 06:48:52;;;;;;;1.48;1.38;;;25.80;41.80;;;;;;4987954;28;20193;-50
2021/06/28 06:51:19;;;;;;;1.40;1.30;;;25.90;41.90;;;;;;4992207;28;20640;-52
2021/06/28 06:53:45;;;;;;;1.38;1.30;;;25.80;41.80;;;;;;4990413;28;20200;-54
2021/06/28 06:56:12;;;;;;;1.30;1.20;;;25.90;41.80;;;;;;4987535;28;20306;-56
2021/06/28 06:58:38;;;;;;;1.40;1.30;;;25.90;41.80;;;;;;4991682;28;20192;-52
2021/06/28 07:01:05;;;;;;;1.33;1.23;;;25.90;42.00;;;;;;4991275;28;20223;-48
2021/06/28 07:03:31;;;;;;;1.35;1.25;;;25.90;41.60;;;;;;4991291;28;20203;-53
2021/06/28 07:05:58;;;;;;;1.13;1.10;;;25.90;41.70;;;;;;4982855;28;20294;-53
2021/06/28 07:08:24;;;;;;;1.20;1.10;;;25.90;41.70;;;;;;4986285;28;20657;-53
2021/06/28 07:10:51;;;;;;;1.50;1.40;;;25.90;41.60;;;;;;4987447;28;20243;-57
2021/06/28 07:13:18;;;;;;;1.73;1.30;;;25.90;41.90;;;;;;4989383;28;20204;-52
2021/06/28 07:15:44;;;;;;;1.40;1.30;;;25.90;42.10;;;;;;4989200;28;20711;-54
2021/06/28 07:18:11;;;;;;;4.65;2.60;;;26.00;42.00;;;;;;4990456;28;20200;-58
2021/06/28 07:20:37;;;;;;;3.90;1.10;;;25.90;42.60;;;;;;4991658;28;20231;-55
2021/06/28 07:23:04;;;;;;;1.30;1.20;;;25.90;42.50;;;;;;4991101;28;20208;-53
2021/06/28 07:25:30;;;;;;;2.45;1.40;;;26.00;42.30;;;;;;4991754;28;20234;-56
2021/06/28 07:27:57;;;;;;;2.65;1.80;;;26.00;43.40;;;;;;4986083;28;20629;-51
2021/06/28 07:30:24;;;;;;;3.83;2.17;;;25.90;42.80;;;;;;4988624;28;20227;-58
2021/06/28 07:32:51;;;;;;;2.60;1.95;;;26.00;42.70;;;;;;4987369;28;20231;-52
2021/06/28 07:35:17;;;;;;;3.95;2.45;;;26.00;43.20;;;;;;4982406;28;20197;-53
2021/06/28 07:37:44;;;;;;;2.63;2.20;;;25.90;43.00;;;;;;4986383;28;20249;-52
2021/06/28 07:40:11;;;;;;;6.03;2.13;;;26.00;42.70;;;;;;4990238;28;20696;-54
2021/06/28 07:42:37;;;;;;;1.83;1.67;;;26.00;42.30;;;;;;4987515;28;20218;-50
2021/06/28 07:45:04;;;;;;;3.00;2.15;;;26.00;42.20;;;;;;4991671;28;20208;-52
2021/06/28 07:47:31;;;;;;;1.80;1.70;;;26.00;42.20;;;;;;4972681;28;20208;-55
2021/06/28 07:49:58;;;;;;;1.90;1.73;;;26.00;42.00;;;;;;4982471;28;20230;-51
2021/06/28 07:52:25;;;;;;;2.65;2.42;;;26.00;42.00;;;;;;4988083;28;20200;-52
2021/06/28 07:54:51;;;;;;;2.17;1.83;;;26.00;42.00;;;;;;4991348;28;20247;-55
2021/06/28 07:57:18;;;;;;;2.03;1.80;;;26.00;41.90;;;;;;4989672;28;20652;-55
2021/06/28 07:59:44;;;;;;;2.17;1.98;;;26.00;41.80;;;;;;4987964;28;20593;-49
2021/06/28 08:02:11;;;;;;;2.08;1.58;;;26.00;41.90;;;;;;4983020;28;20203;-47
2021/06/28 08:04:37;;;;;;;2.08;1.73;;;26.00;42.60;;;;;;4988679;28;20203;-48
2021/06/28 08:07:03;;;;;;;2.53;2.10;;;26.00;42.40;;;;;;4990254;28;20204;-52
2021/06/28 08:09:30;;;;;;;2.63;1.88;;;26.00;42.90;;;;;;4992139;28;20304;-49
2021/06/28 08:11:58;;;;;;;2.47;1.77;;;26.00;43.00;;;;;;4993826;28;20679;-53
2021/06/28 08:14:25;;;;;;;3.22;2.10;;;26.00;43.20;;;;;;4989203;28;20221;-52
2021/06/28 08:16:51;;;;;;;2.95;1.70;;;26.10;43.10;;;;;;4991645;28;20354;-58
2021/06/28 08:19:17;;;;;;;5.32;2.30;;;26.10;43.10;;;;;;4993059;28;20204;-54
2021/06/28 08:21:45;;;;;;;2.60;2.40;;;26.10;44.50;;;;;;4993136;28;20204;-52
2021/06/28 08:24:11;;;;;;;2.72;2.53;;;26.10;43.70;;;;;;4993394;28;20210;-55
2021/06/28 08:26:38;;;;;;;4.43;2.30;;;26.10;44.20;;;;;;4984261;28;20299;-52
2021/06/28 08:29:04;;;;;;;2.30;2.10;;;26.10;43.90;;;;;;4990185;28;20390;-54
2021/06/28 08:31:31;;;;;;;2.25;2.05;;;26.10;43.30;;;;;;4992768;28;20600;-52
2021/06/28 08:33:57;;;;;;;3.00;2.30;;;26.10;44.50;;;;;;4992332;28;20226;-54
2021/06/28 08:36:23;;;;;;;2.30;2.10;;;26.10;44.10;;;;;;4992623;28;20319;-56
2021/06/28 08:38:50;;;;;;;3.25;2.30;;;26.10;43.70;;;;;;4992849;28;20300;-56
2021/06/28 08:41:16;;;;;;;3.15;2.33;;;26.20;44.20;;;;;;4994008;28;20227;-55
2021/06/28 08:43:45;;;;;;;5.10;2.08;;;26.20;43.50;;;;;;4993708;28;20642;-55
2021/06/28 08:46:11;;;;;;;3.33;1.98;;;26.20;43.40;;;;;;4991233;28;20200;-55
2021/06/28 08:48:38;;;;;;;2.28;2.08;;;26.20;43.20;;;;;;4977625;28;20200;-54
2021/06/28 08:51:04;;;;;;;3.25;2.60;;;26.20;43.40;;;;;;4993629;28;20227;-51
2021/06/28 08:53:30;;;;;;;2.25;2.03;;;26.20;44.20;;;;;;4991867;28;20203;-53
2021/06/28 08:55:57;;;;;;;2.90;2.13;;;26.20;44.60;;;;;;4992611;28;20199;-55
2021/06/28 08:58:26;;;;;;;2.50;2.10;;;26.20;44.60;;;;;;4991968;28;20240;-57
2021/06/28 09:00:52;;;;;;;4.55;2.35;;;26.20;44.80;;;;;;4991624;28;20227;-48
2021/06/28 09:03:18;;;;;;;2.60;2.40;;;26.20;44.90;;;;;;4990238;28;20266;-55
2021/06/28 09:05:45;;;;;;;2.63;2.17;;;26.20;44.30;;;;;;4983280;28;20216;-55
2021/06/28 09:08:11;;;;;;;5.10;2.00;;;26.20;44.10;;;;;;4993549;28;20257;-55
2021/06/28 09:10:38;;;;;;;2.80;2.10;;;26.20;44.40;;;;;;4993769;28;20232;-55
2021/06/28 09:13:04;;;;;;;3.08;2.00;;;26.20;43.30;;;;;;4993768;28;20235;-54
2021/06/28 09:15:31;;;;;;;2.80;2.22;;;26.20;43.00;;;;;;4994585;28;20237;-53
2021/06/28 09:17:57;;;;;;;3.17;2.30;;;26.20;42.90;;;;;;4991872;28;20247;-58
2021/06/28 09:20:24;;;;;;;1.90;1.80;;;26.20;42.80;;;;;;4993282;28;20246;-57
2021/06/28 09:22:50;;;;;;;2.30;2.10;;;26.20;42.60;;;;;;4994305;28;20290;-55
2021/06/28 09:25:17;;;;;;;2.20;2.03;;;26.20;42.60;;;;;;4974677;28;20204;-54
2021/06/28 09:27:44;;;;;;;2.22;1.73;;;26.20;42.50;;;;;;4974534;28;20200;-56
2021/06/28 09:30:10;;;;;;;2.88;2.05;;;26.20;42.50;;;;;;4979834;28;20727;-52
2021/06/28 09:32:36;;;;;;;1.88;1.77;;;26.20;42.40;;;;;;4994400;28;20303;-55
2021/06/28 09:35:03;;;;;;;3.05;2.30;;;26.20;42.40;;;;;;4991975;28;20362;-56
2021/06/28 09:37:29;;;;;;;2.50;1.92;;;26.20;42.60;;;;;;4991282;28;20235;-48
2021/06/28 09:39:56;;;;;;;2.60;2.10;;;26.20;42.60;;;;;;4991923;28;20861;-50
2021/06/28 09:42:23;;;;;;;2.42;2.20;;;26.20;42.30;;;;;;4993766;28;20223;-51
2021/06/28 09:44:49;;;;;;;1.85;1.75;;;26.20;42.40;;;;;;4992161;28;20286;-53
2021/06/28 09:47:16;;;;;;;2.55;1.70;;;26.20;42.30;;;;;;4989034;28;20740;-57
2021/06/28 09:49:43;;;;;;;5.43;1.90;;;26.20;42.30;;;;;;4986538;28;20311;-52
2021/06/28 09:52:09;;;;;;;2.05;1.92;;;26.20;42.80;;;;;;4988360;28;20578;-50
2021/06/28 09:54:35;;;;;;;4.88;2.05;;;26.20;43.10;;;;;;4989680;28;20216;-50
2021/06/28 09:57:02;;;;;;;2.00;1.90;;;26.20;43.50;;;;;;4986019;28;20224;-56
2021/06/28 09:59:28;;;;;;;2.30;1.75;;;26.20;43.40;;;;;;4984402;28;20258;-49
2021/06/28 10:01:55;;;;;;;3.00;2.00;;;26.20;43.30;;;;;;4989453;28;20286;-48
2021/06/28 10:04:21;;;;;;;2.78;1.90;;;26.20;43.10;;;;;;4988103;28;20205;-46
2021/06/28 10:06:53;;;;;;;2.00;1.90;;;26.20;43.00;;;;;;4981935;28;20298;-49
2021/06/28 10:09:19;;;;;;;2.30;1.90;;;26.20;43.10;;;;;;4978800;28;20227;-49
2021/06/28 10:11:46;;;;;;;2.20;2.00;;;26.20;43.20;;;;;;4980049;28;20714;-52
2021/06/28 10:14:12;;;;;;;2.00;1.90;;;26.20;44.20;;;;;;4980559;28;22199;-53
2021/06/28 10:16:39;;;;;;;1.88;1.77;;;26.20;43.80;;;;;;4980308;28;20878;-46
2021/06/28 10:19:06;;;;;;;3.55;2.13;;;26.30;43.40;;;;;;4982480;28;20219;-53
2021/06/28 10:21:32;;;;;;;2.13;1.98;;;26.20;43.20;;;;;;4981689;28;20298;-47
2021/06/28 10:23:58;;;;;;;2.80;2.00;;;26.30;43.20;;;;;;4980218;28;20667;-50
2021/06/28 10:26:25;;;;;;;2.13;2.00;;;26.20;43.10;;;;;;4980931;28;20204;-49
2021/06/28 10:28:51;;;;;;;2.13;1.92;;;26.30;43.20;;;;;;4979175;28;20267;-50
2021/06/28 10:31:18;;;;;;;2.20;2.00;;;26.20;43.30;;;;;;4981312;28;20208;-53
2021/06/28 10:33:44;;;;;;;2.03;1.90;;;26.30;43.60;;;;;;4985863;28;20303;-52
2021/06/28 10:36:12;;;;;;;2.10;1.90;;;26.20;44.00;;;;;;4988306;28;20672;-54
2021/06/28 10:38:38;;;;;;;2.22;2.03;;;26.30;43.80;;;;;;4988600;28;20628;-56
2021/06/28 10:41:05;;;;;;;2.00;1.80;;;26.30;43.60;;;;;;4987781;28;20657;-54
2021/06/28 10:43:31;;;;;;;2.25;2.05;;;26.20;43.30;;;;;;4983960;28;20220;-57
2021/06/28 10:45:58;;;;;;;2.05;1.95;;;26.30;43.30;;;;;;4991622;28;20295;-58
2021/06/28 10:48:24;;;;;;;2.10;2.00;;;26.30;43.10;;;;;;4991291;28;20223;-58
2021/06/28 10:50:51;;;;;;;3.15;2.85;;;26.20;43.70;;;;;;4989265;28;20207;-55
2021/06/28 10:53:18;;;;;;;4.00;3.60;;;26.20;42.80;;;;;;4984233;28;20707;-57
2021/06/28 10:55:44;;;;;;;4.28;3.88;;;26.30;42.90;;;;;;4992323;28;20223;-52
2021/06/28 10:58:11;;;;;;;5.30;4.80;;;26.30;42.70;;;;;;4990774;28;20236;-54
2021/06/28 11:00:37;;;;;;;7.47;6.80;;;26.30;42.60;;;;;;4992458;28;20291;-56
2021/06/28 11:03:04;;;;;;;8.85;7.80;;;26.30;42.60;;;;;;4990937;28;20203;-57
2021/06/28 11:05:30;;;;;;;8.32;7.03;;;26.30;42.70;;;;;;4989920;28;20283;-56
2021/06/28 11:07:57;;;;;;;7.10;6.47;;;26.20;42.50;;;;;;4987547;28;20255;-55
2021/06/28 11:10:23;;;;;;;7.03;6.32;;;26.20;42.40;;;;;;4990769;28;20315;-55
2021/06/28 11:12:55;;;;;;;6.25;5.65;;;26.30;42.50;;;;;;4989050;28;20206;-50
2021/06/28 11:15:23;;;;;;;6.38;5.07;;;26.20;42.40;;;;;;4991327;28;20307;-57
2021/06/28 11:17:49;;;;;;;4.80;4.40;;;26.20;42.30;;;;;;4986878;28;20235;-53
2021/06/28 11:20:16;;;;;;;4.97;4.57;;;26.20;42.30;;;;;;4980750;28;20286;-55
2021/06/28 11:22:44;;;;;;;3.72;3.42;;;26.30;42.20;;;;;;4990782;28;20311;-53
2021/06/28 11:25:11;;;;;;;5.05;4.55;;;26.30;42.10;;;;;;4980167;28;20196;-56
2021/06/28 11:27:37;;;;;;;4.15;3.75;;;26.20;42.30;;;;;;4988953;28;20700;-57
2021/06/28 11:30:04;;;;;;;4.50;4.20;;;26.20;42.10;;;;;;4987471;28;20228;-55
2021/06/28 11:32:30;;;;;;;4.50;3.80;;;26.20;42.10;;;;;;4988066;28;20219;-51
2021/06/28 11:34:57;;;;;;;3.28;2.80;;;26.20;42.10;;;;;;4989093;28;20607;-54
2021/06/28 11:37:23;;;;;;;3.10;2.80;;;26.20;41.40;;;;;;4990444;28;20257;-52
2021/06/28 11:39:50;;;;;;;9.50;5.13;;;26.20;41.60;;;;;;4988460;28;20282;-57
2021/06/28 11:42:17;;;;;;;18.90;8.98;;;26.20;41.40;;;;;;4990303;28;20303;-55
2021/06/28 11:44:43;;;;;;;24.83;13.07;;;26.20;41.70;;;;;;4991529;28;20571;-56
2021/06/28 11:47:10;;;;;;;23.27;13.27;;;26.20;42.30;;;;;;4989635;28;20226;-52
2021/06/28 11:49:37;;;;;;;21.92;12.02;;;26.20;41.70;;;;;;4990528;28;20219;-53
2021/06/28 11:52:03;;;;;;;24.38;14.52;;;26.30;41.80;;;;;;4985722;28;21153;-55
2021/06/28 11:54:30;;;;;;;25.55;15.63;;;26.30;41.80;;;;;;4990662;28;20225;-51
2021/06/28 11:56:59;;;;;;;27.88;18.38;;;26.30;41.80;;;;;;4989913;28;20224;-54
2021/06/28 11:59:25;;;;;;;30.55;18.88;;;26.20;41.80;;;;;;4990809;28;20230;-54
2021/06/28 12:01:52;;;;;;;27.77;18.05;;;26.30;41.80;;;;;;4991330;28;20234;-58
2021/06/28 12:04:18;;;;;;;19.17;12.75;;;26.30;41.80;;;;;;4991296;28;20284;-54
2021/06/28 12:06:45;;;;;;;22.02;14.10;;;26.20;41.20;;;;;;4989267;28;20200;-57
2021/06/28 12:09:11;;;;;;;21.25;13.85;;;26.20;41.40;;;;;;4989793;28;20216;-54
2021/06/28 12:11:38;;;;;;;19.45;12.40;;;26.30;41.50;;;;;;4989826;28;20235;-55
2021/06/28 12:14:05;;;;;;;16.67;11.25;;;26.30;41.50;;;;;;4988432;28;20233;-52
2021/06/28 12:16:32;;;;;;;18.13;10.02;;;26.20;41.40;;;;;;4976592;28;20207;-55
2021/06/28 12:18:59;;;;;;;14.18;9.85;;;26.30;41.50;;;;;;4987251;28;20644;-55
2021/06/28 12:21:25;;;;;;;14.13;9.48;;;26.20;41.40;;;;;;4986265;28;20310;-52
2021/06/28 12:23:52;;;;;;;13.13;8.57;;;26.20;41.50;;;;;;4990721;28;20210;-51
2021/06/28 12:26:18;;;;;;;14.88;8.93;;;26.30;41.50;;;;;;4989320;28;20226;-50
2021/06/28 12:28:44;;;;;;;13.02;7.60;;;26.20;41.50;;;;;;4986679;28;20242;-56
2021/06/28 12:31:11;;;;;;;11.55;7.60;;;26.30;41.60;;;;;;4986663;28;20208;-50
2021/06/28 12:33:37;;;;;;;11.98;7.25;;;26.30;41.60;;;;;;4989364;28;20294;-57
2021/06/28 12:36:04;;;;;;;11.07;7.53;;;26.20;41.50;;;;;;4990002;28;20204;-58
2021/06/28 12:38:30;;;;;;;10.57;6.90;;;26.30;41.60;;;;;;4988624;28;20235;-56
2021/06/28 12:40:57;;;;;;;9.38;6.35;;;26.30;41.60;;;;;;4987548;28;20287;-53